createdAt,value
2018-08-28T00:01:16.665Z,18.62
2018-08-28T00:03:48.759Z,18.67
2018-08-28T00:06:21.129Z,18.65
2018-08-28T00:08:53.246Z,18.72
2018-08-28T00:11:25.366Z,18.63
2018-08-28T00:13:57.458Z,18.43
2018-08-28T00:16:29.644Z,18.21
2018-08-28T00:19:01.781Z,18.06
2018-08-28T00:21:34.113Z,17.91
2018-08-28T00:24:06.193Z,17.79
2018-08-28T00:26:38.332Z,17.63
2018-08-28T00:29:10.491Z,17.43
2018-08-28T00:31:42.625Z,17.31
2018-08-28T00:34:14.749Z,17.15
2018-08-28T00:36:46.933Z,17.09
2018-08-28T00:39:19.032Z,17.13
2018-08-28T00:41:51.705Z,17.02
2018-08-28T00:44:23.792Z,16.83
2018-08-28T00:46:55.980Z,16.77
2018-08-28T00:49:28.122Z,16.82
2018-08-28T00:52:00.220Z,16.93
2018-08-28T00:54:32.349Z,16.80
2018-08-28T00:57:04.466Z,16.77
2018-08-28T00:59:36.588Z,16.71
2018-08-28T01:02:08.695Z,16.55
2018-08-28T01:04:40.823Z,16.67
2018-08-28T01:07:12.993Z,16.68
2018-08-28T01:09:45.097Z,16.78
2018-08-28T01:12:17.189Z,16.77
2018-08-28T01:14:49.449Z,16.75
2018-08-28T01:17:21.457Z,16.61
2018-08-28T01:19:53.541Z,16.50
2018-08-28T01:22:25.631Z,16.41
2018-08-28T01:24:57.754Z,16.36
2018-08-28T01:27:29.877Z,16.28
2018-08-28T01:30:01.975Z,16.13
2018-08-28T01:32:34.104Z,16.02
2018-08-28T01:35:06.306Z,15.95
2018-08-28T01:37:38.434Z,15.79
2018-08-28T01:40:10.521Z,15.65
2018-08-28T01:42:42.671Z,15.57
2018-08-28T01:45:14.794Z,15.53
2018-08-28T01:47:46.896Z,15.49
2018-08-28T01:50:19.032Z,15.41
2018-08-28T01:52:51.133Z,15.35
2018-08-28T01:55:23.219Z,15.29
2018-08-28T01:57:55.381Z,15.36
2018-08-28T02:00:27.481Z,15.26
2018-08-28T02:02:59.641Z,15.35
2018-08-28T02:05:31.720Z,15.38
2018-08-28T02:08:03.970Z,15.41
2018-08-28T02:10:36.037Z,15.54
2018-08-28T02:13:08.171Z,15.54
2018-08-28T02:15:40.249Z,15.53
2018-08-28T02:18:12.414Z,15.56
2018-08-28T02:20:44.537Z,15.54
2018-08-28T02:23:16.659Z,15.62
2018-08-28T02:25:48.732Z,15.66
2018-08-28T02:28:20.843Z,15.69
2018-08-28T02:30:52.950Z,15.74
2018-08-28T02:33:25.097Z,15.65
2018-08-28T02:35:57.233Z,15.59
2018-08-28T02:38:29.331Z,15.52
2018-08-28T02:41:01.396Z,15.57
2018-08-28T02:43:33.515Z,15.53
2018-08-28T02:46:05.671Z,15.55
2018-08-28T02:48:37.749Z,15.59
2018-08-28T02:51:10.837Z,15.57
2018-08-28T02:53:42.908Z,15.49
2018-08-28T02:56:15.024Z,15.46
2018-08-28T02:58:47.117Z,15.54
2018-08-28T03:01:19.220Z,15.57
2018-08-28T03:03:51.367Z,15.70
2018-08-28T03:06:23.841Z,15.76
2018-08-28T03:08:56.008Z,15.82
2018-08-28T03:11:28.094Z,15.93
2018-08-28T03:14:00.212Z,15.96
2018-08-28T03:16:32.307Z,16.00
2018-08-28T03:19:04.482Z,16.01
2018-08-28T03:21:36.572Z,15.99
2018-08-28T03:24:08.656Z,16.01
2018-08-28T03:26:40.781Z,16.13
2018-08-28T03:29:12.951Z,16.18
2018-08-28T03:31:45.077Z,16.19
2018-08-28T03:34:17.172Z,16.14
2018-08-28T03:36:49.244Z,16.11
2018-08-28T03:39:21.375Z,16.12
2018-08-28T03:41:53.449Z,16.23
2018-08-28T03:44:25.547Z,16.36
2018-08-28T03:46:57.621Z,16.35
2018-08-28T03:49:29.687Z,16.36
2018-08-28T03:52:01.818Z,16.30
2018-08-28T03:54:33.920Z,16.33
2018-08-28T03:57:06.039Z,16.30
2018-08-28T03:59:38.181Z,16.30
2018-08-28T04:02:10.315Z,16.36
2018-08-28T04:04:42.359Z,16.35
2018-08-28T04:07:14.413Z,16.31
2018-08-28T04:09:46.508Z,16.31
2018-08-28T04:12:18.623Z,16.47
2018-08-28T04:14:50.718Z,16.56
2018-08-28T04:17:22.771Z,16.58
2018-08-28T04:19:54.892Z,16.51
2018-08-28T04:22:27.025Z,16.56
2018-08-28T04:24:59.107Z,16.56
2018-08-28T04:27:31.217Z,16.58
2018-08-28T04:30:03.609Z,16.61
2018-08-28T04:32:35.663Z,16.61
2018-08-28T04:35:07.801Z,16.66
2018-08-28T04:37:39.877Z,16.66
2018-08-28T04:40:12.017Z,16.69
2018-08-28T04:42:44.066Z,16.70
2018-08-28T04:45:16.136Z,16.80
2018-08-28T04:47:48.180Z,16.79
2018-08-28T04:50:20.247Z,16.80
2018-08-28T04:52:52.339Z,16.87
2018-08-28T04:55:24.396Z,16.90
2018-08-28T04:57:56.449Z,16.97
2018-08-28T05:00:28.538Z,16.97
2018-08-28T05:03:00.631Z,17.02
2018-08-28T05:05:32.720Z,17.07
2018-08-28T05:08:05.038Z,17.14
2018-08-28T05:10:37.145Z,17.22
2018-08-28T05:13:09.229Z,17.34
2018-08-28T05:15:41.297Z,17.43
2018-08-28T05:18:13.415Z,17.53
2018-08-28T05:20:45.498Z,17.46
2018-08-28T05:23:17.610Z,17.55
2018-08-28T05:25:49.732Z,17.56
2018-08-28T05:28:21.864Z,17.57
2018-08-28T05:30:53.987Z,17.65
2018-08-28T05:33:26.063Z,17.69
2018-08-28T05:35:58.135Z,17.76
2018-08-28T05:38:30.236Z,17.86
2018-08-28T05:41:02.359Z,18.03
2018-08-28T05:43:34.411Z,18.02
2018-08-28T05:46:06.573Z,18.21
2018-08-28T05:48:38.772Z,18.27
2018-08-28T05:51:10.891Z,18.46
2018-08-28T05:53:43.017Z,18.58
2018-08-28T05:56:15.211Z,18.73
2018-08-28T05:58:47.188Z,18.90
2018-08-28T06:01:19.350Z,19.05
2018-08-28T06:03:51.445Z,19.23
2018-08-28T06:06:23.639Z,19.59
2018-08-28T06:08:55.872Z,20.33
2018-08-28T06:11:27.933Z,20.40
2018-08-28T06:14:00.056Z,20.48
2018-08-28T06:16:32.216Z,20.41
2018-08-28T06:19:04.615Z,20.14
2018-08-28T06:21:36.660Z,20.12
2018-08-28T06:24:08.765Z,20.31
2018-08-28T06:26:40.883Z,20.04
2018-08-28T06:29:13.050Z,20.02
2018-08-28T06:31:45.192Z,20.39
2018-08-28T06:34:17.337Z,20.20
2018-08-28T06:36:49.439Z,20.03
2018-08-28T06:39:21.504Z,20.56
2018-08-28T06:41:53.637Z,21.94
2018-08-28T06:44:25.998Z,22.66
2018-08-28T06:46:58.076Z,23.38
2018-08-28T06:49:30.223Z,22.63
2018-08-28T06:52:02.320Z,22.53
2018-08-28T06:54:34.474Z,23.43
2018-08-28T06:57:07.540Z,22.90
2018-08-28T06:59:39.816Z,24.30
2018-08-28T07:02:11.943Z,25.83
2018-08-28T07:04:44.090Z,26.50
2018-08-28T07:07:16.191Z,26.91
2018-08-28T07:09:48.302Z,27.70
2018-08-28T07:12:20.530Z,28.66
2018-08-28T07:14:52.656Z,28.45
2018-08-28T07:17:24.786Z,28.88
2018-08-28T07:19:56.882Z,28.65
2018-08-28T07:22:28.980Z,28.23
2018-08-28T07:25:08.723Z,28.22
2018-08-28T07:27:41.764Z,24.98
2018-08-28T07:30:13.927Z,24.59
2018-08-28T07:32:46.001Z,24.55
2018-08-28T07:35:18.147Z,24.49
2018-08-28T07:37:50.408Z,24.39
2018-08-28T07:40:22.614Z,25.78
2018-08-28T07:42:54.751Z,25.62
2018-08-28T07:45:26.849Z,26.19
2018-08-28T07:47:59.104Z,26.25
2018-08-28T07:50:31.197Z,25.51
2018-08-28T07:53:03.565Z,24.61
2018-08-28T07:55:35.717Z,25.10
2018-08-28T07:58:07.856Z,25.81
2018-08-28T08:00:40.060Z,27.79
2018-08-28T08:03:12.243Z,28.85
2018-08-28T08:05:44.369Z,29.43
2018-08-28T08:08:16.651Z,29.39
2018-08-28T08:10:48.760Z,28.59
2018-08-28T08:13:20.900Z,27.84
2018-08-28T08:15:53.077Z,28.68
2018-08-28T08:18:25.161Z,30.54
2018-08-28T08:20:57.272Z,30.37
2018-08-28T08:23:29.364Z,29.65
2018-08-28T08:26:01.527Z,28.59
2018-08-28T08:28:33.655Z,27.76
2018-08-28T08:31:06.067Z,27.21
2018-08-28T08:33:38.190Z,26.83
2018-08-28T08:36:10.296Z,26.30
2018-08-28T08:38:42.401Z,27.35
2018-08-28T08:41:14.476Z,28.29
2018-08-28T08:43:46.560Z,28.18
2018-08-28T08:46:18.713Z,28.82
2018-08-28T08:48:50.894Z,29.02
2018-08-28T08:51:23.034Z,27.71
2018-08-28T08:53:55.224Z,28.14
2018-08-28T08:56:27.308Z,28.40
2018-08-28T08:58:59.430Z,28.26
2018-08-28T09:01:31.522Z,28.24
2018-08-28T09:04:03.648Z,27.57
2018-08-28T09:06:35.762Z,26.83
2018-08-28T09:09:07.928Z,27.24
2018-08-28T09:11:40.071Z,28.29
2018-08-28T09:14:12.178Z,29.25
2018-08-28T09:16:44.304Z,29.78
2018-08-28T09:19:16.435Z,29.00
2018-08-28T09:21:48.620Z,29.61
2018-08-28T09:24:20.730Z,30.28
2018-08-28T09:26:52.893Z,29.12
2018-08-28T09:29:25.033Z,28.45
2018-08-28T09:31:57.095Z,28.02
2018-08-28T09:34:29.280Z,28.34
2018-08-28T09:37:01.639Z,28.55
2018-08-28T09:39:33.705Z,28.86
2018-08-28T09:42:05.792Z,29.19
2018-08-28T09:44:37.941Z,29.33
2018-08-28T09:47:10.086Z,29.53
2018-08-28T09:49:42.255Z,29.47
2018-08-28T09:52:14.356Z,30.19
2018-08-28T09:54:46.492Z,30.77
2018-08-28T09:57:19.348Z,31.39
2018-08-28T09:59:52.791Z,31.24
2018-08-28T10:02:27.625Z,30.19
2018-08-28T10:04:59.694Z,28.79
2018-08-28T10:07:31.929Z,28.29
2018-08-28T10:10:05.051Z,27.04
2018-08-28T10:12:37.135Z,27.58
2018-08-28T10:15:09.317Z,26.91
2018-08-28T10:17:42.197Z,26.99
2018-08-28T10:20:14.329Z,27.75
2018-08-28T10:22:46.406Z,27.39
2018-08-28T10:25:18.493Z,28.23
2018-08-28T10:27:50.565Z,28.23
2018-08-28T10:30:22.893Z,28.85
2018-08-28T10:32:55.149Z,29.08
2018-08-28T10:35:27.529Z,29.05
2018-08-28T10:37:59.904Z,29.05
2018-08-28T10:40:32.062Z,29.32
2018-08-28T10:43:04.654Z,29.15
2018-08-28T10:45:36.760Z,28.25
2018-08-28T10:48:08.998Z,29.72
2018-08-28T10:50:41.534Z,29.69
2018-08-28T10:53:13.642Z,28.83
2018-08-28T10:55:45.733Z,29.92
2018-08-28T10:58:17.864Z,30.59
2018-08-28T11:00:49.959Z,30.79
2018-08-28T11:03:22.383Z,30.81
2018-08-28T11:05:54.518Z,28.51
2018-08-28T11:08:26.624Z,28.14
2018-08-28T11:10:58.674Z,28.00
2018-08-28T11:13:30.798Z,28.84
2018-08-28T11:16:03.008Z,28.64
2018-08-28T11:18:35.076Z,28.99
2018-08-28T11:21:07.168Z,29.64
2018-08-28T11:23:39.298Z,28.30
2018-08-28T11:26:11.410Z,27.67
2018-08-28T11:28:43.532Z,27.92
2018-08-28T11:31:15.695Z,28.81
2018-08-28T11:33:47.802Z,29.49
2018-08-28T11:36:19.980Z,29.32
2018-08-28T11:38:52.113Z,29.72
2018-08-28T11:41:24.321Z,30.73
2018-08-28T11:43:56.397Z,31.07
2018-08-28T11:46:28.601Z,31.31
2018-08-28T11:49:00.764Z,30.97
2018-08-28T11:51:32.919Z,29.35
2018-08-28T11:54:05.703Z,30.20
2018-08-28T11:56:37.788Z,29.75
2018-08-28T11:59:09.876Z,29.46
2018-08-28T12:01:41.988Z,30.24
2018-08-28T12:04:14.344Z,30.15
2018-08-28T12:06:46.505Z,30.47
2018-08-28T12:09:18.766Z,30.77
2018-08-28T12:11:50.867Z,29.75
2018-08-28T12:14:23.016Z,29.50
2018-08-28T12:16:55.203Z,30.68
2018-08-28T12:19:27.312Z,30.77
2018-08-28T12:21:59.460Z,30.74
2018-08-28T12:24:32.103Z,30.27
2018-08-28T12:27:04.404Z,31.32
2018-08-28T12:29:36.542Z,31.12
2018-08-28T12:32:08.653Z,31.28
2018-08-28T12:34:40.812Z,30.50
2018-08-28T12:37:13.184Z,30.37
2018-08-28T12:39:45.214Z,30.02
2018-08-28T12:42:18.214Z,30.46
2018-08-28T12:44:50.288Z,31.01
2018-08-28T12:47:22.480Z,31.20
2018-08-28T12:49:54.920Z,29.79
2018-08-28T12:52:27.032Z,30.83
2018-08-28T12:54:59.296Z,31.71
2018-08-28T12:57:31.324Z,32.53
2018-08-28T13:00:03.583Z,31.30
2018-08-28T13:02:35.680Z,31.02
2018-08-28T13:05:07.899Z,30.76
2018-08-28T13:07:39.975Z,30.12
2018-08-28T13:10:12.116Z,30.84
2018-08-28T13:12:44.261Z,32.75
2018-08-28T13:15:16.381Z,33.31
2018-08-28T13:17:48.482Z,34.71
2018-08-28T13:20:20.608Z,34.79
2018-08-28T13:22:52.823Z,34.95
2018-08-28T13:25:25.105Z,35.33
2018-08-28T13:27:57.208Z,34.34
2018-08-28T13:30:30.458Z,34.96
2018-08-28T13:33:02.599Z,34.26
2018-08-28T13:35:34.688Z,34.31
2018-08-28T13:38:06.769Z,34.37
2018-08-28T13:40:39.055Z,34.60
2018-08-28T13:43:11.084Z,35.95
2018-08-28T13:45:43.538Z,34.56
2018-08-28T13:48:15.724Z,35.22
2018-08-28T13:50:47.845Z,35.30
2018-08-28T13:53:19.957Z,34.24
2018-08-28T13:55:52.066Z,35.45
2018-08-28T13:58:24.189Z,35.31
2018-08-28T14:00:56.309Z,36.43
2018-08-28T14:03:28.383Z,35.37
2018-08-28T14:06:00.534Z,35.69
2018-08-28T14:08:32.697Z,35.81
2018-08-28T14:11:04.921Z,35.24
2018-08-28T14:13:38.128Z,35.06
2018-08-28T14:16:10.216Z,36.12
2018-08-28T14:18:44.344Z,36.92
2018-08-28T14:21:16.481Z,36.84
2018-08-28T14:23:48.650Z,37.56
2018-08-28T14:26:20.784Z,36.64
2018-08-28T14:28:53.301Z,36.29
2018-08-28T14:31:25.453Z,34.22
2018-08-28T14:33:58.057Z,34.52
2018-08-28T14:36:30.258Z,34.97
2018-08-28T14:39:02.523Z,34.81
2018-08-28T14:41:34.621Z,34.29
2018-08-28T14:44:07.027Z,33.45
2018-08-28T14:46:39.401Z,34.09
2018-08-28T14:49:11.480Z,32.86
2018-08-28T14:51:43.666Z,32.41
2018-08-28T14:54:16.884Z,33.74
2018-08-28T14:56:48.999Z,33.97
2018-08-28T14:59:21.123Z,34.04
2018-08-28T15:01:53.435Z,34.58
2018-08-28T15:04:25.849Z,33.05
2018-08-28T15:06:59.138Z,33.46
2018-08-28T15:09:31.201Z,34.29
2018-08-28T15:12:03.312Z,33.99
2018-08-28T15:14:35.514Z,33.70
2018-08-28T15:17:07.685Z,34.19
2018-08-28T15:19:39.807Z,34.21
2018-08-28T15:22:12.022Z,34.31
2018-08-28T15:24:44.300Z,34.60
2018-08-28T15:27:16.499Z,33.38
2018-08-28T15:29:49.641Z,34.24
2018-08-28T15:32:21.820Z,34.59
2018-08-28T15:34:53.928Z,35.08
2018-08-28T15:37:26.069Z,34.16
2018-08-28T15:39:58.184Z,34.63
2018-08-28T15:42:30.397Z,33.92
2018-08-28T15:45:03.645Z,34.66
2018-08-28T15:47:35.815Z,32.84
2018-08-28T15:50:07.966Z,32.66
2018-08-28T15:52:40.077Z,31.88
2018-08-28T15:55:12.249Z,30.66
2018-08-28T15:57:44.442Z,29.92
2018-08-28T16:00:16.576Z,29.48
2018-08-28T16:02:48.712Z,29.30
2018-08-28T16:05:21.010Z,28.95
2018-08-28T16:07:59.730Z,29.01
2018-08-28T16:10:31.877Z,28.63
2018-08-28T16:13:04.793Z,28.47
2018-08-28T16:15:36.932Z,28.24
2018-08-28T16:18:09.144Z,28.10
2018-08-28T16:20:41.225Z,27.65
2018-08-28T16:23:19.116Z,27.31
2018-08-28T16:25:51.337Z,27.47
2018-08-28T16:28:24.652Z,27.34
2018-08-28T16:30:56.849Z,27.05
2018-08-28T16:33:28.981Z,26.90
2018-08-28T16:36:01.061Z,26.58
2018-08-28T16:38:33.184Z,26.38
2018-08-28T16:41:05.352Z,26.51
2018-08-28T16:43:37.477Z,26.44
2018-08-28T16:46:09.717Z,26.20
2018-08-28T16:48:41.782Z,26.20
2018-08-28T16:51:13.846Z,26.11
2018-08-28T16:53:46.233Z,26.03
2018-08-28T16:56:18.393Z,25.93
2018-08-28T16:58:50.543Z,25.75
2018-08-28T17:01:22.652Z,25.48
2018-08-28T17:03:54.689Z,25.22
2018-08-28T17:06:26.735Z,25.03
2018-08-28T17:08:58.791Z,24.88
2018-08-28T17:11:30.943Z,24.81
2018-08-28T17:14:03.040Z,24.64
2018-08-28T17:16:35.137Z,24.50
2018-08-28T17:19:07.240Z,24.33
2018-08-28T17:21:39.308Z,24.34
2018-08-28T17:24:11.439Z,24.24
2018-08-28T17:26:43.602Z,24.06
2018-08-28T17:29:15.737Z,23.96
2018-08-28T17:31:47.799Z,23.78
2018-08-28T17:34:19.919Z,23.69
2018-08-28T17:36:52.033Z,23.55
2018-08-28T17:39:24.085Z,23.42
2018-08-28T17:41:56.176Z,23.26
2018-08-28T17:44:28.267Z,23.09
2018-08-28T17:47:00.343Z,22.87
2018-08-28T17:49:32.413Z,22.68
2018-08-28T17:52:04.476Z,22.52
2018-08-28T17:54:36.577Z,22.41
2018-08-28T17:57:08.724Z,22.38
2018-08-28T17:59:41.497Z,22.21
2018-08-28T18:02:13.585Z,22.22
2018-08-28T18:04:45.730Z,22.23
2018-08-28T18:07:17.790Z,22.10
2018-08-28T18:09:49.859Z,21.96
2018-08-28T18:12:21.960Z,21.78
2018-08-28T18:14:54.269Z,21.56
2018-08-28T18:17:26.419Z,21.36
2018-08-28T18:19:58.672Z,21.15
2018-08-28T18:22:30.809Z,20.98
2018-08-28T18:25:03.004Z,20.84
2018-08-28T18:27:35.108Z,20.86
2018-08-28T18:30:07.630Z,20.84
2018-08-28T18:32:39.773Z,20.71
2018-08-28T18:35:11.874Z,20.56
2018-08-28T18:37:44.167Z,20.43
2018-08-28T18:40:16.423Z,20.43
2018-08-28T18:42:48.485Z,20.51
2018-08-28T18:45:20.945Z,20.55
2018-08-28T18:47:53.088Z,20.53
2018-08-28T18:50:25.178Z,20.47
2018-08-28T18:52:57.259Z,20.22
2018-08-28T18:55:29.292Z,19.86
2018-08-28T18:58:01.372Z,19.63
2018-08-28T19:00:33.514Z,19.55
2018-08-28T19:03:05.572Z,19.61
2018-08-28T19:05:37.621Z,19.57
2018-08-28T19:08:10.014Z,19.66
2018-08-28T19:10:42.153Z,19.45
2018-08-28T19:13:14.209Z,19.38
2018-08-28T19:15:46.338Z,19.28
2018-08-28T19:18:18.412Z,19.12
2018-08-28T19:20:50.637Z,19.00
2018-08-28T19:23:22.640Z,18.74
2018-08-28T19:25:54.782Z,18.63
2018-08-28T19:28:26.917Z,18.75
2018-08-28T19:30:58.963Z,18.60
2018-08-28T19:33:31.082Z,18.52
2018-08-28T19:36:03.142Z,18.47
2018-08-28T19:38:35.233Z,18.25
2018-08-28T19:41:07.321Z,18.11
2018-08-28T19:43:39.347Z,18.03
2018-08-28T19:46:11.499Z,18.11
2018-08-28T19:48:43.552Z,18.11
2018-08-28T19:51:15.644Z,18.08
2018-08-28T19:53:47.745Z,17.93
2018-08-28T19:56:19.848Z,17.69
2018-08-28T19:58:51.977Z,17.70
2018-08-28T20:01:24.065Z,17.58
2018-08-28T20:03:56.133Z,17.44
2018-08-28T20:06:28.489Z,17.20
2018-08-28T20:09:00.627Z,17.09
2018-08-28T20:11:32.691Z,17.10
2018-08-28T20:14:04.832Z,17.29
2018-08-28T20:16:37.031Z,17.20
2018-08-28T20:19:09.127Z,17.13
2018-08-28T20:21:41.227Z,17.02
2018-08-28T20:26:52.362Z,16.96
2018-08-28T20:29:24.360Z,16.97
2018-08-28T20:31:56.476Z,16.91
2018-08-28T20:34:28.492Z,16.86
2018-08-28T20:37:00.587Z,16.69
2018-08-28T20:39:32.721Z,16.58
2018-08-28T20:42:04.952Z,16.51
2018-08-28T20:44:37.134Z,16.44
2018-08-28T20:47:09.227Z,16.41
2018-08-28T20:49:41.425Z,16.32
2018-08-28T20:52:13.480Z,16.29
2018-08-28T20:54:45.545Z,16.33
2018-08-28T20:57:17.800Z,16.41
2018-08-28T20:59:50.074Z,16.28
2018-08-28T21:02:22.155Z,16.17
2018-08-28T21:04:54.260Z,16.09
2018-08-28T21:07:26.378Z,15.97
2018-08-28T21:09:58.412Z,15.77
2018-08-28T21:12:30.515Z,15.70
2018-08-28T21:15:02.681Z,15.63
2018-08-28T21:17:34.804Z,15.60
2018-08-28T21:20:07.468Z,15.77
2018-08-28T21:22:39.573Z,15.75
2018-08-28T21:25:11.740Z,15.69
2018-08-28T21:27:43.922Z,15.96
2018-08-28T21:30:16.216Z,15.83
2018-08-28T21:32:48.387Z,15.77
2018-08-28T21:35:20.530Z,15.86
2018-08-28T21:37:53.095Z,15.80
2018-08-28T21:40:25.379Z,15.73
2018-08-28T21:42:57.456Z,15.66
2018-08-28T21:45:29.916Z,15.56
2018-08-28T21:48:02.054Z,15.52
2018-08-28T21:50:34.104Z,15.45
2018-08-28T21:53:06.232Z,15.35
2018-08-28T21:55:38.351Z,15.22
2018-08-28T21:58:10.409Z,15.25
2018-08-28T22:00:42.601Z,15.06
2018-08-28T22:03:14.687Z,15.26
2018-08-28T22:05:46.791Z,15.30
2018-08-28T22:08:18.931Z,15.17
2018-08-28T22:10:50.983Z,15.08
2018-08-28T22:13:23.160Z,14.88
2018-08-28T22:15:55.201Z,14.79
2018-08-28T22:18:27.385Z,14.75
2018-08-28T22:20:59.401Z,14.62
2018-08-28T22:23:31.486Z,14.46
2018-08-28T22:26:04.104Z,14.28
2018-08-28T22:28:36.099Z,14.29
2018-08-28T22:31:08.202Z,14.27
2018-08-28T22:33:40.284Z,14.20
2018-08-28T22:36:12.340Z,14.34
2018-08-28T22:38:44.355Z,14.30
2018-08-28T22:41:16.378Z,14.26
2018-08-28T22:43:48.431Z,14.18
2018-08-28T22:46:20.474Z,14.24
2018-08-28T22:48:52.593Z,14.17
2018-08-28T22:51:24.661Z,14.10
2018-08-28T22:53:56.692Z,14.06
2018-08-28T22:56:28.738Z,13.98
2018-08-28T22:59:00.777Z,13.90
2018-08-28T23:01:32.809Z,13.85
2018-08-28T23:04:04.863Z,13.91
2018-08-28T23:06:36.906Z,13.99
2018-08-28T23:09:08.916Z,14.16
2018-08-28T23:11:40.941Z,14.20
2018-08-28T23:14:12.976Z,14.01
2018-08-28T23:16:44.999Z,13.91
2018-08-28T23:19:17.016Z,13.87
2018-08-28T23:21:49.056Z,13.96
2018-08-28T23:24:21.115Z,13.99
2018-08-28T23:26:53.192Z,13.99
2018-08-28T23:29:25.251Z,14.00
2018-08-28T23:31:57.319Z,13.89
2018-08-28T23:34:29.408Z,13.70
2018-08-28T23:37:01.472Z,13.49
2018-08-28T23:39:33.480Z,13.62
2018-08-28T23:42:05.500Z,13.54
2018-08-28T23:44:37.576Z,13.56
2018-08-28T23:47:09.610Z,13.50
2018-08-28T23:49:41.692Z,13.42
2018-08-28T23:52:13.803Z,13.51
2018-08-28T23:54:45.929Z,13.56
2018-08-28T23:57:18.012Z,13.47
2018-08-28T23:59:50.050Z,13.33
